createdAt,value
2018-05-15T00:02:07.865Z,95165
2018-05-15T00:07:02.978Z,95170
2018-05-15T00:11:58.395Z,95163
2018-05-15T00:16:53.600Z,95169
2018-05-15T00:21:48.403Z,95160
2018-05-15T00:26:43.863Z,95161
2018-05-15T00:31:38.844Z,95157
2018-05-15T00:36:34.116Z,95140
2018-05-15T00:41:29.094Z,95137
2018-05-15T00:46:24.337Z,95143
2018-05-15T00:51:19.528Z,95154
2018-05-15T00:56:14.955Z,95161
2018-05-15T01:01:10.084Z,95147
2018-05-15T01:06:05.191Z,95145
2018-05-15T01:11:00.161Z,95140
2018-05-15T01:15:55.446Z,95146
2018-05-15T01:20:50.455Z,95135
2018-05-15T01:25:44.775Z,95138
2018-05-15T01:30:39.988Z,95134
2018-05-15T01:35:35.121Z,95123
2018-05-15T01:40:30.261Z,95111
2018-05-15T01:45:25.495Z,95118
2018-05-15T01:50:20.768Z,95107
2018-05-15T01:55:16.243Z,95116
2018-05-15T02:00:11.253Z,95118
2018-05-15T02:05:06.495Z,95124
2018-05-15T02:10:01.542Z,95121
2018-05-15T02:14:57.085Z,95129
2018-05-15T02:19:52.173Z,95114
2018-05-15T02:24:47.133Z,95107
2018-05-15T02:29:42.367Z,95121
2018-05-15T02:34:37.797Z,95113
2018-05-15T02:39:33.174Z,95109
2018-05-15T02:44:27.900Z,95113
2018-05-15T02:49:23.227Z,95131
2018-05-15T02:54:19.391Z,95129
2018-05-15T02:59:14.189Z,95132
2018-05-15T03:04:09.465Z,95130
2018-05-15T03:09:04.745Z,95098
2018-05-15T03:14:00.171Z,95125
2018-05-15T03:18:55.389Z,95133
2018-05-15T03:23:50.514Z,95143
2018-05-15T03:28:45.535Z,95145
2018-05-15T03:33:40.844Z,95124
2018-05-15T03:38:35.598Z,95131
2018-05-15T03:43:30.946Z,95135
2018-05-15T03:48:26.250Z,95126
2018-05-15T03:53:21.678Z,95147
2018-05-15T03:58:16.851Z,95144
2018-05-15T04:03:12.112Z,95146
2018-05-15T04:08:07.238Z,95155
2018-05-15T04:13:02.078Z,95150
2018-05-15T04:17:56.994Z,95165
2018-05-15T04:22:51.895Z,95157
2018-05-15T04:27:47.010Z,95164
2018-05-15T04:32:42.272Z,95176
2018-05-15T04:37:36.844Z,95184
2018-05-15T04:42:32.016Z,95174
2018-05-15T04:47:26.667Z,95181
2018-05-15T04:52:21.646Z,95191
2018-05-15T04:57:16.768Z,95189
2018-05-15T05:02:11.577Z,95194
2018-05-15T05:07:06.171Z,95205
2018-05-15T05:12:01.488Z,95167
2018-05-15T05:16:56.626Z,95195
2018-05-15T05:21:51.495Z,95201
2018-05-15T05:26:46.621Z,95195
2018-05-15T05:31:41.483Z,95185
2018-05-15T05:36:36.671Z,95175
2018-05-15T05:41:31.712Z,95169
2018-05-15T05:46:26.648Z,95178
2018-05-15T05:51:21.690Z,95182
2018-05-15T05:56:17.252Z,95187
2018-05-15T06:01:12.298Z,95192
2018-05-15T06:06:07.869Z,95173
2018-05-15T06:11:02.749Z,95181
2018-05-15T06:15:58.497Z,95181
2018-05-15T06:20:54.222Z,95170
2018-05-15T06:25:48.696Z,95171
2018-05-15T06:30:43.964Z,95179
2018-05-15T06:35:38.840Z,95182
2018-05-15T06:40:34.148Z,95189
2018-05-15T06:45:28.662Z,95186
2018-05-15T06:50:23.988Z,95176
2018-05-15T06:55:18.818Z,95174
2018-05-15T07:00:14.201Z,95172
2018-05-15T07:05:09.338Z,95173
2018-05-15T07:10:04.540Z,95158
2018-05-15T07:14:59.914Z,95149
2018-05-15T07:19:55.159Z,95165
2018-05-15T07:24:50.474Z,95153
2018-05-15T07:29:45.719Z,95141
2018-05-15T07:34:40.953Z,95150
2018-05-15T07:39:36.487Z,95145
2018-05-15T07:44:31.658Z,95160
2018-05-15T07:49:27.149Z,95154
2018-05-15T07:54:22.530Z,95155
2018-05-15T07:59:17.569Z,95159
2018-05-15T08:04:12.766Z,95148
2018-05-15T08:09:07.986Z,95147
2018-05-15T08:14:03.503Z,95131
2018-05-15T08:18:58.641Z,95151
2018-05-15T08:23:52.552Z,95157
2018-05-15T08:28:47.787Z,95157
2018-05-15T08:33:42.607Z,95159
2018-05-15T08:38:37.457Z,95162
2018-05-15T08:43:32.401Z,95161
2018-05-15T08:48:27.353Z,95155
2018-05-15T08:53:21.622Z,95158
2018-05-15T08:58:16.911Z,95154
2018-05-15T09:03:12.290Z,95154
2018-05-15T09:08:08.150Z,95156
2018-05-15T09:13:02.948Z,95162
2018-05-15T09:17:58.784Z,95160
2018-05-15T09:22:53.951Z,95165
2018-05-15T09:27:49.051Z,95159
2018-05-15T09:32:44.146Z,95162
2018-05-15T09:37:39.424Z,95166
2018-05-15T09:42:34.927Z,95157
2018-05-15T09:47:32.863Z,95156
2018-05-15T09:52:28.013Z,95156
2018-05-15T09:57:23.833Z,95147
2018-05-15T10:02:18.943Z,95154
2018-05-15T10:07:14.327Z,95150
2018-05-15T10:12:09.545Z,95156
2018-05-15T10:17:04.132Z,95151
2018-05-15T10:21:59.118Z,95146
2018-05-15T10:26:54.435Z,95133
2018-05-15T10:31:49.571Z,95138
2018-05-15T10:36:43.344Z,95127
2018-05-15T10:41:38.842Z,95131
2018-05-15T10:46:34.357Z,95096
2018-05-15T10:51:29.503Z,95111
2018-05-15T10:56:24.895Z,95115
2018-05-15T11:01:20.435Z,95114
2018-05-15T11:06:26.276Z,95106
2018-05-15T11:11:21.633Z,95126
2018-05-15T11:16:22.139Z,95127
2018-05-15T11:21:14.939Z,95107
2018-05-15T11:26:09.743Z,95113
2018-05-15T11:31:04.902Z,95119
2018-05-15T11:36:00.319Z,95121
2018-05-15T11:40:55.048Z,95118
2018-05-15T11:45:50.395Z,95101
2018-05-15T11:50:46.837Z,95105
2018-05-15T11:55:46.498Z,95107
2018-05-15T12:00:40.760Z,95083
2018-05-15T12:05:36.413Z,95095
2018-05-15T12:10:31.952Z,95088
2018-05-15T12:15:28.424Z,95077
2018-05-15T12:20:23.669Z,95082
2018-05-15T12:25:18.409Z,95084
2018-05-15T12:30:13.909Z,95084
2018-05-15T12:35:24.502Z,95073
2018-05-15T12:40:20.108Z,95062
2018-05-15T12:45:20.463Z,95065
2018-05-15T12:50:13.321Z,95054
2018-05-15T12:55:10.160Z,95053
2018-05-15T13:00:05.107Z,95054
2018-05-15T13:05:00.280Z,95045
2018-05-15T13:09:55.497Z,95066
2018-05-15T13:14:50.967Z,95049
2018-05-15T13:19:46.741Z,95056
2018-05-15T13:24:42.565Z,95040
2018-05-15T13:29:37.752Z,95037
2018-05-15T13:34:32.698Z,95034
2018-05-15T13:39:27.830Z,95030
2018-05-15T13:44:22.939Z,95033
2018-05-15T13:49:17.903Z,95010
2018-05-15T13:54:12.913Z,95010
2018-05-15T13:59:08.128Z,95032
2018-05-15T14:04:03.164Z,95054
2018-05-15T14:08:58.026Z,95073
2018-05-15T14:13:53.144Z,95108
2018-05-15T14:18:48.048Z,95145
2018-05-15T14:23:42.694Z,95129
2018-05-15T14:28:37.199Z,95080
2018-05-15T14:33:32.236Z,95053
2018-05-15T14:38:27.648Z,95113
2018-05-15T14:43:22.582Z,95084
2018-05-15T14:48:18.276Z,95079
2018-05-15T14:53:13.238Z,95098
2018-05-15T14:58:08.581Z,95134
2018-05-15T15:03:03.677Z,95145
2018-05-15T15:07:58.841Z,95112
2018-05-15T15:12:54.166Z,95123
2018-05-15T15:17:48.849Z,95142
2018-05-15T15:22:43.812Z,95123
2018-05-15T15:27:39.129Z,95117
2018-05-15T15:32:33.931Z,95090
2018-05-15T15:37:28.933Z,95088
2018-05-15T15:42:23.838Z,95090
2018-05-15T15:47:18.460Z,95080
2018-05-15T15:52:13.387Z,95053
2018-05-15T15:57:07.741Z,95045
2018-05-15T16:02:02.633Z,95050
2018-05-15T16:06:58.009Z,95026
2018-05-15T16:11:53.410Z,95019
2018-05-15T16:16:49.084Z,94995
2018-05-15T16:21:43.982Z,94965
2018-05-15T16:26:39.684Z,94965
2018-05-15T16:31:34.671Z,94961
2018-05-15T16:36:30.008Z,94992
2018-05-15T16:41:25.011Z,95003
2018-05-15T16:46:20.461Z,95005
2018-05-15T16:51:15.287Z,95008
2018-05-15T16:56:10.157Z,95011
2018-05-15T17:01:05.249Z,95021
2018-05-15T17:06:00.105Z,95059
2018-05-15T17:10:54.998Z,95048
2018-05-15T17:15:50.180Z,95042
2018-05-15T17:20:45.208Z,95052
2018-05-15T17:25:40.621Z,95049
2018-05-15T17:30:35.556Z,95056
2018-05-15T17:35:30.870Z,95045
2018-05-15T17:40:25.497Z,95042
2018-05-15T17:45:20.597Z,95043
2018-05-15T17:50:15.413Z,95047
2018-05-15T17:55:10.477Z,95056
2018-05-15T18:00:04.886Z,95044
2018-05-15T18:05:00.086Z,95043
2018-05-15T18:09:54.857Z,95047
2018-05-15T18:14:50.292Z,95022
2018-05-15T18:19:45.368Z,95003
2018-05-15T18:24:40.123Z,95003
2018-05-15T18:29:35.077Z,95007
2018-05-15T18:34:30.651Z,95016
2018-05-15T18:39:25.949Z,95025
2018-05-15T18:44:21.226Z,95005
2018-05-15T18:49:16.397Z,95007
2018-05-15T18:54:11.773Z,95002
2018-05-15T18:59:07.068Z,95026
2018-05-15T19:04:02.022Z,95044
2018-05-15T19:08:57.166Z,95065
2018-05-15T19:13:52.602Z,95099
2018-05-15T19:18:47.840Z,95088
2018-05-15T19:23:43.077Z,95101
2018-05-15T19:28:38.011Z,95069
2018-05-15T19:33:33.280Z,95044
2018-05-15T19:38:28.231Z,95036
2018-05-15T19:43:23.227Z,95030
2018-05-15T19:48:18.197Z,94994
2018-05-15T19:53:13.538Z,94987
2018-05-15T19:58:08.333Z,94991
2018-05-15T20:03:06.071Z,94975
2018-05-15T20:08:00.558Z,94998
2018-05-15T20:12:55.283Z,95021
2018-05-15T20:17:50.781Z,95031
2018-05-15T20:22:45.988Z,95028
2018-05-15T20:27:40.522Z,95035
2018-05-15T20:32:35.954Z,95045
2018-05-15T20:37:31.071Z,94995
2018-05-15T20:42:26.237Z,95040
2018-05-15T20:47:21.545Z,95031
2018-05-15T20:52:16.347Z,94985
2018-05-15T20:57:11.064Z,95036
2018-05-15T21:02:06.019Z,95041
2018-05-15T21:07:00.966Z,95025
2018-05-15T21:11:56.243Z,95004
2018-05-15T21:16:51.502Z,95005
2018-05-15T21:21:46.414Z,95016
2018-05-15T21:26:41.241Z,95023
2018-05-15T21:31:36.614Z,95017
2018-05-15T21:36:31.894Z,95040
2018-05-15T21:41:27.357Z,94992
2018-05-15T21:46:21.912Z,94990
2018-05-15T21:51:17.347Z,95002
2018-05-15T21:56:12.884Z,94969
2018-05-15T22:01:08.274Z,94986
2018-05-15T22:06:03.438Z,94941
2018-05-15T22:10:58.553Z,94975
2018-05-15T22:15:53.837Z,95010
2018-05-15T22:20:49.051Z,95008
2018-05-15T22:25:44.329Z,94989
2018-05-15T22:30:39.823Z,94985
2018-05-15T22:35:34.758Z,95001
2018-05-15T22:40:30.153Z,95000
2018-05-15T22:45:25.551Z,94986
2018-05-15T22:50:21.221Z,94980
2018-05-15T22:55:16.587Z,94965
2018-05-15T23:00:11.845Z,94948
2018-05-15T23:05:07.246Z,94926
2018-05-15T23:10:02.473Z,94922
2018-05-15T23:14:57.791Z,94934
2018-05-15T23:19:52.984Z,94921
2018-05-15T23:24:48.299Z,94909
2018-05-15T23:29:43.518Z,94909
2018-05-15T23:34:38.927Z,94893
2018-05-15T23:39:34.408Z,94876
2018-05-15T23:44:29.977Z,94885
2018-05-15T23:49:25.111Z,94865
2018-05-15T23:54:20.526Z,94858
2018-05-15T23:59:15.574Z,94862
